Hua Shan, China
Current Conditions -  °F | °C
As of 8:00 PM on Thursday 30 Oct 2014 (Local Time) from ZLXY Reporting Station
Haze Haze  
Wind Chill: 55°   Ceiling: 6000
Heat Index: 55°   Visibility: 1.5mi
Dew Point: 50°   Wind: 2mph
Humidity: 82%   Direction: 10°N
Pressure: 30.12"   Gusts: NA
Location:  34.48°N, 110.08°E
Report Text: ZLXY 301200Z 01001MPS 2500 BR OVC060 13/10 Q1020 NOSIG
Loading
Personal Weather Stations






























Interactive Weather Map
Tropical Storm Tracking
New forecast layout! Learn more

10-Day Weather Forecast

Advertisements
Track Severe Weather on mobile